createdAt,value
2022-10-06T00:01:09.714Z,21.05
2022-10-06T00:03:39.411Z,21.04
2022-10-06T00:06:08.625Z,21.04
2022-10-06T00:08:39.255Z,20.98
2022-10-06T00:11:09.382Z,20.95
2022-10-06T00:13:37.872Z,20.94
2022-10-06T00:16:11.816Z,20.85
2022-10-06T00:18:40.590Z,20.80
2022-10-06T00:21:09.175Z,20.87
2022-10-06T00:23:38.058Z,20.92
2022-10-06T00:26:07.466Z,20.99
2022-10-06T00:28:35.970Z,21.05
2022-10-06T00:31:04.477Z,21.09
2022-10-06T00:33:34.879Z,21.12
2022-10-06T00:36:03.354Z,21.13
2022-10-06T00:38:32.441Z,21.12
2022-10-06T00:41:01.781Z,21.09
2022-10-06T00:43:46.313Z,21.10
2022-10-06T00:46:21.269Z,21.11
2022-10-06T00:48:56.707Z,21.08
2022-10-06T00:51:25.589Z,21.06
2022-10-06T00:53:54.483Z,21.03
2022-10-06T00:56:22.970Z,21.11
2022-10-06T00:58:52.110Z,21.22
2022-10-06T01:01:20.917Z,21.30
2022-10-06T01:03:56.745Z,21.33
2022-10-06T01:06:25.648Z,21.35
2022-10-06T01:08:54.615Z,21.39
2022-10-06T01:11:23.103Z,21.41
2022-10-06T01:13:51.998Z,21.43
2022-10-06T01:16:24.428Z,21.41
2022-10-06T01:18:56.746Z,21.35
2022-10-06T01:21:30.763Z,21.30
2022-10-06T01:24:02.828Z,21.23
2022-10-06T01:26:33.662Z,21.17
2022-10-06T01:29:02.784Z,21.08
2022-10-06T01:31:31.892Z,21.01
2022-10-06T01:34:00.959Z,20.91
2022-10-06T01:36:30.188Z,20.89
2022-10-06T01:39:00.091Z,20.89
2022-10-06T01:41:30.531Z,20.89
2022-10-06T01:43:59.447Z,20.86
2022-10-06T01:46:30.515Z,20.83
2022-10-06T01:48:59.382Z,20.81
2022-10-06T01:51:28.050Z,20.77
2022-10-06T01:53:56.429Z,20.75
2022-10-06T01:56:26.660Z,20.76
2022-10-06T01:58:55.209Z,20.74
2022-10-06T02:01:23.976Z,20.79
2022-10-06T02:03:55.497Z,20.81
2022-10-06T02:06:24.360Z,20.84
2022-10-06T02:08:53.405Z,20.86
2022-10-06T02:11:21.789Z,20.90
2022-10-06T02:13:52.056Z,20.92
2022-10-06T02:16:21.271Z,20.98
2022-10-06T02:18:49.792Z,20.99
2022-10-06T02:21:23.503Z,21.04
2022-10-06T02:23:51.935Z,21.03
2022-10-06T02:26:20.976Z,21.06
2022-10-06T02:28:51.272Z,21.10
2022-10-06T02:31:20.780Z,21.16
2022-10-06T02:33:49.517Z,21.14
2022-10-06T02:36:18.530Z,21.17
2022-10-06T02:38:47.204Z,21.18
2022-10-06T02:41:16.205Z,21.19
2022-10-06T02:43:44.894Z,21.17
2022-10-06T02:46:15.323Z,21.12
2022-10-06T02:48:45.874Z,21.11
2022-10-06T02:51:17.121Z,21.11
2022-10-06T02:53:47.549Z,21.09
2022-10-06T02:56:18.228Z,21.07
2022-10-06T02:58:49.015Z,21.04
2022-10-06T03:01:21.978Z,21.01
2022-10-06T03:03:51.926Z,21.01
2022-10-06T03:06:24.515Z,21.01
2022-10-06T03:08:55.804Z,21.00
2022-10-06T03:11:25.771Z,20.98
2022-10-06T03:13:55.901Z,20.91
2022-10-06T03:16:28.326Z,20.91
2022-10-06T03:18:59.822Z,20.86
2022-10-06T03:21:30.814Z,20.88
2022-10-06T03:24:00.693Z,20.94
2022-10-06T03:26:31.473Z,21.04
2022-10-06T03:29:00.836Z,21.10
2022-10-06T03:31:31.571Z,21.14
2022-10-06T03:34:00.369Z,21.16
2022-10-06T03:36:32.438Z,21.23
2022-10-06T03:39:02.797Z,21.35
2022-10-06T03:41:33.608Z,21.38
2022-10-06T03:44:03.215Z,21.49
2022-10-06T03:46:35.621Z,21.38
2022-10-06T03:49:05.312Z,20.74
2022-10-06T03:51:35.760Z,20.79
2022-10-06T03:54:05.258Z,20.82
2022-10-06T03:56:35.888Z,20.76
2022-10-06T03:59:07.247Z,20.52
2022-10-06T04:01:39.468Z,20.65
2022-10-06T04:04:09.430Z,20.63
2022-10-06T04:06:39.437Z,20.66
2022-10-06T04:09:14.987Z,20.69
2022-10-06T04:11:45.956Z,20.66
2022-10-06T04:14:16.079Z,20.67
2022-10-06T04:16:47.455Z,20.61
2022-10-06T04:19:17.651Z,20.49
2022-10-06T04:21:48.193Z,20.46
2022-10-06T04:24:18.659Z,20.53
2022-10-06T04:26:49.013Z,20.46
2022-10-06T04:29:18.550Z,20.59
2022-10-06T04:31:50.633Z,20.49
2022-10-06T04:34:19.562Z,20.44
2022-10-06T04:36:47.897Z,20.63
2022-10-06T04:39:17.000Z,20.59
2022-10-06T04:41:47.397Z,20.40
2022-10-06T04:44:16.324Z,20.42
2022-10-06T04:46:45.771Z,20.50
2022-10-06T04:49:20.642Z,20.64
2022-10-06T04:51:50.075Z,20.48
2022-10-06T04:54:19.724Z,20.38
2022-10-06T04:56:48.423Z,20.34
2022-10-06T04:59:17.274Z,20.23
2022-10-06T05:01:46.102Z,20.30
2022-10-06T05:04:16.123Z,20.21
2022-10-06T05:06:44.601Z,20.13
2022-10-06T05:09:15.733Z,20.16
2022-10-06T05:11:44.719Z,20.17
2022-10-06T05:14:13.497Z,20.00
2022-10-06T05:16:43.167Z,20.09
2022-10-06T05:19:12.068Z,19.95
2022-10-06T05:21:42.193Z,20.02
2022-10-06T05:24:10.647Z,19.99
2022-10-06T05:26:39.632Z,20.05
2022-10-06T05:29:09.233Z,20.05
2022-10-06T05:31:40.402Z,20.02
2022-10-06T05:34:09.307Z,20.02
2022-10-06T05:36:37.829Z,20.04
2022-10-06T05:39:11.168Z,20.04
2022-10-06T05:41:40.690Z,20.08
2022-10-06T05:44:10.724Z,20.09
2022-10-06T05:46:39.650Z,20.05
2022-10-06T05:49:10.484Z,20.04
2022-10-06T05:51:40.184Z,20.01
2022-10-06T05:54:10.494Z,20.10
2022-10-06T05:56:39.980Z,20.16
2022-10-06T05:59:08.691Z,20.19
2022-10-06T06:01:39.972Z,20.23
2022-10-06T06:04:11.390Z,20.26
2022-10-06T06:06:42.746Z,20.25
2022-10-06T06:09:15.025Z,20.22
2022-10-06T06:11:45.540Z,20.27
2022-10-06T06:14:16.790Z,20.32
2022-10-06T06:16:45.354Z,20.37
2022-10-06T06:19:15.399Z,20.36
2022-10-06T06:21:44.133Z,20.36
2022-10-06T06:24:13.930Z,20.38
2022-10-06T06:26:42.665Z,20.43
2022-10-06T06:29:10.933Z,20.48
2022-10-06T06:31:43.856Z,20.47
2022-10-06T06:34:12.665Z,20.46
2022-10-06T06:36:46.896Z,20.40
2022-10-06T06:39:19.995Z,20.37
2022-10-06T06:41:49.097Z,20.27
2022-10-06T06:44:19.740Z,20.24
2022-10-06T06:46:50.419Z,20.14
2022-10-06T06:49:20.669Z,20.09
2022-10-06T06:51:51.214Z,20.10
2022-10-06T06:54:21.650Z,20.17
2022-10-06T06:56:51.975Z,20.28
2022-10-06T06:59:20.878Z,20.41
2022-10-06T07:01:49.560Z,20.60
2022-10-06T07:04:18.912Z,20.57
2022-10-06T07:06:57.131Z,20.61
2022-10-06T07:09:27.904Z,20.81
2022-10-06T07:11:57.211Z,20.93
2022-10-06T07:14:25.903Z,21.10
2022-10-06T07:17:11.796Z,21.15
2022-10-06T07:19:58.627Z,21.25
2022-10-06T07:22:47.658Z,21.40
2022-10-06T07:25:26.037Z,21.61
2022-10-06T07:27:56.202Z,21.73
2022-10-06T07:30:27.947Z,21.73
2022-10-06T07:32:57.049Z,21.69
2022-10-06T07:35:26.561Z,21.53
2022-10-06T07:37:55.354Z,21.60
2022-10-06T07:40:25.269Z,21.73
2022-10-06T07:42:53.956Z,21.86
2022-10-06T07:45:42.243Z,21.85
2022-10-06T07:48:14.826Z,21.70
2022-10-06T07:50:44.286Z,21.87
2022-10-06T07:53:13.692Z,21.73
2022-10-06T07:58:17.415Z,21.66
2022-10-06T08:00:46.729Z,21.85
2022-10-06T08:03:18.212Z,21.63
2022-10-06T08:05:47.589Z,21.75
2022-10-06T08:08:16.893Z,22.04
2022-10-06T08:10:54.295Z,21.98
2022-10-06T08:13:23.907Z,22.06
2022-10-06T08:15:54.926Z,22.00
2022-10-06T08:18:45.354Z,22.13
2022-10-06T08:21:16.056Z,22.02
2022-10-06T08:23:45.714Z,22.23
2022-10-06T08:26:17.145Z,22.48
2022-10-06T08:28:47.978Z,22.54
2022-10-06T08:31:17.808Z,22.58
2022-10-06T08:33:47.188Z,22.71
2022-10-06T08:36:18.622Z,22.64
2022-10-06T08:38:50.484Z,22.83
2022-10-06T08:41:23.900Z,22.62
2022-10-06T08:43:59.272Z,22.85
2022-10-06T08:46:36.845Z,22.61
2022-10-06T08:49:06.986Z,22.74
2022-10-06T08:51:50.633Z,22.80
2022-10-06T08:54:29.997Z,22.76
2022-10-06T08:57:06.738Z,22.88
2022-10-06T08:59:37.061Z,23.10
2022-10-06T09:02:21.560Z,23.06
2022-10-06T09:04:51.005Z,22.95
2022-10-06T09:07:26.745Z,23.10
2022-10-06T09:10:16.641Z,23.13
2022-10-06T09:12:52.443Z,23.09
2022-10-06T09:15:31.507Z,22.69
2022-10-06T09:18:10.813Z,23.13
2022-10-06T09:20:47.330Z,22.98
2022-10-06T09:23:38.116Z,23.11
2022-10-06T09:26:12.020Z,23.24
2022-10-06T09:28:42.697Z,23.21
2022-10-06T09:31:21.906Z,23.27
2022-10-06T09:33:53.750Z,23.23
2022-10-06T09:36:24.219Z,23.18
2022-10-06T09:38:55.275Z,23.22
2022-10-06T09:41:28.308Z,23.06
2022-10-06T09:44:00.793Z,23.45
2022-10-06T09:46:33.179Z,23.39
2022-10-06T09:49:16.712Z,23.41
2022-10-06T09:52:02.264Z,23.45
2022-10-06T09:54:31.375Z,23.29
2022-10-06T09:57:08.254Z,23.44
2022-10-06T09:59:42.260Z,23.39
2022-10-06T10:02:33.749Z,23.52
2022-10-06T10:05:02.666Z,23.56
2022-10-06T10:07:31.860Z,23.79
2022-10-06T10:10:21.337Z,23.60
2022-10-06T10:12:54.121Z,23.89
2022-10-06T10:15:31.799Z,23.80
2022-10-06T10:18:03.972Z,23.67
2022-10-06T10:20:36.672Z,23.80
2022-10-06T10:23:18.280Z,23.92
2022-10-06T10:26:09.670Z,23.80
2022-10-06T10:29:04.274Z,24.06
2022-10-06T10:31:43.665Z,23.59
2022-10-06T10:34:40.316Z,23.71
2022-10-06T10:37:13.305Z,23.98
2022-10-06T10:39:45.374Z,24.03
2022-10-06T10:42:19.936Z,23.94
2022-10-06T10:44:53.822Z,23.83
2022-10-06T10:47:28.055Z,24.08
2022-10-06T10:50:05.859Z,24.30
2022-10-06T10:52:41.478Z,24.17
2022-10-06T10:55:21.833Z,24.11
2022-10-06T10:57:52.058Z,24.15
2022-10-06T11:00:23.107Z,23.92
2022-10-06T11:02:55.007Z,23.90
2022-10-06T11:05:37.595Z,24.10
2022-10-06T11:08:14.959Z,23.78
2022-10-06T11:10:50.117Z,23.92
2022-10-06T11:13:28.230Z,24.06
2022-10-06T11:16:17.051Z,24.08
2022-10-06T11:19:03.058Z,24.23
2022-10-06T11:21:37.621Z,24.20
2022-10-06T11:24:15.628Z,24.22
2022-10-06T11:27:07.921Z,24.17
2022-10-06T11:29:44.699Z,24.20
2022-10-06T11:32:24.573Z,24.29
2022-10-06T11:34:54.884Z,24.47
2022-10-06T11:37:36.548Z,24.41
2022-10-06T11:40:24.920Z,24.38
2022-10-06T11:43:00.351Z,24.41
2022-10-06T11:45:35.654Z,24.35
2022-10-06T11:48:21.045Z,24.33
2022-10-06T11:50:55.225Z,24.50
2022-10-06T11:53:38.690Z,24.49
2022-10-06T11:56:24.983Z,24.52
2022-10-06T11:59:28.646Z,24.45
2022-10-06T12:02:01.983Z,24.81
2022-10-06T12:04:31.017Z,24.98
2022-10-06T12:07:06.915Z,25.00
2022-10-06T12:09:46.235Z,25.10
2022-10-06T12:13:06.102Z,24.86
2022-10-06T12:19:18.744Z,25.29
2022-10-06T12:21:55.726Z,25.27
2022-10-06T12:24:37.712Z,25.39
2022-10-06T12:27:39.119Z,25.25
2022-10-06T12:30:21.224Z,25.40
2022-10-06T12:32:57.603Z,25.18
2022-10-06T12:35:32.005Z,25.57
2022-10-06T12:38:04.837Z,25.52
2022-10-06T12:40:54.483Z,25.65
2022-10-06T12:43:32.467Z,25.61
2022-10-06T12:46:05.010Z,25.81
2022-10-06T12:48:43.162Z,25.54
2022-10-06T12:51:23.285Z,25.43
2022-10-06T12:54:00.157Z,25.62
2022-10-06T12:56:32.523Z,25.07
2022-10-06T12:59:20.822Z,25.21
2022-10-06T13:01:51.722Z,25.04
2022-10-06T13:04:37.688Z,25.04
2022-10-06T13:07:12.526Z,24.98
2022-10-06T13:09:42.102Z,25.21
2022-10-06T13:12:30.260Z,25.33
2022-10-06T13:15:17.520Z,25.38
2022-10-06T13:17:49.626Z,25.23
2022-10-06T13:20:21.612Z,25.18
2022-10-06T13:22:57.827Z,25.22
2022-10-06T13:25:28.248Z,25.40
2022-10-06T13:27:57.928Z,24.98
2022-10-06T13:30:26.729Z,25.15
2022-10-06T13:32:56.180Z,25.14
2022-10-06T13:35:26.964Z,25.33
2022-10-06T13:37:56.368Z,25.30
2022-10-06T13:40:46.845Z,25.16
2022-10-06T13:43:20.272Z,24.96
2022-10-06T13:45:49.461Z,25.16
2022-10-06T13:48:22.043Z,25.06
2022-10-06T13:50:53.190Z,25.07
2022-10-06T13:53:27.973Z,24.85
2022-10-06T13:55:56.588Z,24.65
2022-10-06T13:58:30.074Z,24.80
2022-10-06T14:01:00.877Z,24.68
2022-10-06T14:06:15.224Z,24.74
2022-10-06T14:08:47.020Z,24.70
2022-10-06T14:11:15.261Z,24.53
2022-10-06T14:13:50.605Z,24.51
2022-10-06T14:16:25.237Z,24.45
2022-10-06T14:18:56.877Z,24.27
2022-10-06T14:21:39.166Z,24.48
2022-10-06T14:24:23.537Z,24.34
2022-10-06T14:26:52.171Z,24.23
2022-10-06T14:29:23.321Z,24.47
2022-10-06T14:31:51.832Z,24.45
2022-10-06T14:34:22.112Z,24.27
2022-10-06T14:36:53.587Z,24.35
2022-10-06T14:39:22.338Z,24.34
2022-10-06T14:41:51.232Z,24.18
2022-10-06T14:44:19.589Z,24.20
2022-10-06T14:46:50.156Z,24.33
2022-10-06T14:49:20.479Z,24.32
2022-10-06T14:51:48.760Z,24.35
2022-10-06T14:54:17.112Z,24.22
2022-10-06T14:56:45.839Z,24.22
2022-10-06T14:59:17.225Z,24.24
2022-10-06T15:01:46.279Z,24.01
2022-10-06T15:04:18.810Z,24.07
2022-10-06T15:07:06.390Z,23.93
2022-10-06T15:09:35.809Z,23.91
2022-10-06T15:12:05.251Z,23.86
2022-10-06T15:14:35.018Z,23.85
2022-10-06T15:17:04.124Z,23.83
2022-10-06T15:19:35.069Z,23.77
2022-10-06T15:22:04.724Z,23.80
2022-10-06T15:24:33.207Z,23.72
2022-10-06T15:27:24.577Z,23.65
2022-10-06T15:29:54.057Z,23.53
2022-10-06T15:32:22.871Z,23.48
2022-10-06T15:34:55.318Z,23.35
2022-10-06T15:37:24.291Z,23.30
2022-10-06T15:39:53.462Z,23.22
2022-10-06T15:42:29.207Z,23.14
2022-10-06T15:45:07.499Z,23.10
2022-10-06T15:47:36.971Z,23.04
2022-10-06T15:50:08.592Z,23.01
2022-10-06T15:52:37.735Z,22.85
2022-10-06T15:55:07.146Z,22.84
2022-10-06T15:57:35.878Z,22.74
2022-10-06T16:00:04.804Z,22.70
2022-10-06T16:02:41.055Z,22.63
2022-10-06T16:05:29.227Z,22.53
2022-10-06T16:07:57.686Z,22.56
2022-10-06T16:10:26.410Z,22.43
2022-10-06T16:12:54.942Z,22.35
2022-10-06T16:15:23.297Z,22.30
2022-10-06T16:17:51.807Z,22.23
2022-10-06T16:20:21.730Z,22.15
2022-10-06T16:22:50.167Z,22.03
2022-10-06T16:25:19.008Z,21.93
2022-10-06T16:27:47.489Z,21.81
2022-10-06T16:30:17.268Z,21.75
2022-10-06T16:32:48.749Z,21.67
2022-10-06T16:35:25.310Z,21.53
2022-10-06T16:37:55.874Z,21.36
2022-10-06T16:40:26.831Z,21.19
2022-10-06T16:42:56.176Z,21.06
2022-10-06T16:45:25.329Z,20.95
2022-10-06T16:47:53.908Z,20.84
2022-10-06T16:50:24.089Z,20.75
2022-10-06T16:52:52.393Z,20.64
2022-10-06T16:55:20.866Z,20.52
2022-10-06T16:57:49.721Z,20.39
2022-10-06T17:00:18.549Z,20.27
2022-10-06T17:02:47.291Z,20.20
2022-10-06T17:05:16.303Z,20.10
2022-10-06T17:07:46.198Z,19.98
2022-10-06T17:10:20.738Z,19.90
2022-10-06T17:12:50.087Z,19.83
2022-10-06T17:15:18.682Z,19.76
2022-10-06T17:17:50.234Z,19.67
2022-10-06T17:20:19.175Z,19.59
2022-10-06T17:22:51.548Z,19.51
2022-10-06T17:25:28.611Z,19.44
2022-10-06T17:27:57.477Z,19.39
2022-10-06T17:30:26.347Z,19.30
2022-10-06T17:32:55.211Z,19.24
2022-10-06T17:35:23.706Z,19.14
2022-10-06T17:37:54.262Z,19.05
2022-10-06T17:40:24.672Z,18.96
2022-10-06T17:42:53.416Z,18.83
2022-10-06T17:45:25.224Z,18.73
2022-10-06T17:47:54.374Z,18.64
2022-10-06T17:50:22.843Z,18.58
2022-10-06T17:52:51.322Z,18.57
2022-10-06T17:55:23.949Z,18.49
2022-10-06T17:57:52.521Z,18.45
2022-10-06T18:00:21.213Z,18.39
2022-10-06T18:02:50.183Z,18.28
2022-10-06T18:05:18.849Z,18.21
2022-10-06T18:07:47.388Z,18.15
2022-10-06T18:10:33.546Z,18.08
2022-10-06T18:13:03.132Z,18.02
2022-10-06T18:15:36.263Z,17.95
2022-10-06T18:18:05.445Z,17.89
2022-10-06T18:20:40.078Z,17.82
2022-10-06T18:23:09.262Z,17.72
2022-10-06T18:25:37.857Z,17.60
2022-10-06T18:28:07.590Z,17.53
2022-10-06T18:30:35.794Z,17.49
2022-10-06T18:36:09.806Z,17.43
2022-10-06T18:36:14.637Z,17.35
2022-10-06T18:38:46.954Z,17.28
2022-10-06T18:41:17.406Z,17.21
2022-10-06T18:43:47.481Z,17.16
2022-10-06T18:46:35.141Z,17.10
2022-10-06T18:49:10.364Z,17.07
2022-10-06T18:51:40.073Z,17.04
2022-10-06T18:54:10.915Z,16.97
2022-10-06T18:56:39.458Z,16.84
2022-10-06T18:59:12.242Z,16.79
2022-10-06T19:01:43.036Z,16.79
2022-10-06T19:04:14.181Z,16.75
2022-10-06T19:06:45.278Z,16.73
2022-10-06T19:09:17.688Z,16.69
2022-10-06T19:11:53.040Z,16.66
2022-10-06T19:14:25.003Z,16.62
2022-10-06T19:16:56.373Z,16.52
2022-10-06T19:19:25.972Z,16.45
2022-10-06T19:21:57.218Z,16.46
2022-10-06T19:24:25.763Z,16.38
2022-10-06T19:26:56.457Z,16.32
2022-10-06T19:29:27.135Z,16.27
2022-10-06T19:31:58.163Z,16.24
2022-10-06T19:34:27.445Z,16.17
2022-10-06T19:36:58.127Z,16.15
2022-10-06T19:39:28.827Z,16.12
2022-10-06T19:42:30.353Z,16.08
2022-10-06T19:45:00.482Z,16.07
2022-10-06T19:47:30.651Z,15.98
2022-10-06T19:50:03.742Z,15.93
2022-10-06T19:52:34.841Z,15.91
2022-10-06T19:55:03.493Z,15.87
2022-10-06T19:57:32.614Z,15.83
2022-10-06T20:00:05.317Z,15.77
2022-10-06T20:02:43.927Z,15.73
2022-10-06T20:05:17.405Z,15.67
2022-10-06T20:07:47.951Z,15.65
2022-10-06T20:10:16.811Z,15.66
2022-10-06T20:12:45.129Z,15.67
2022-10-06T20:15:15.321Z,15.65
2022-10-06T20:17:45.658Z,15.56
2022-10-06T20:20:15.289Z,15.42
2022-10-06T20:22:44.089Z,15.38
2022-10-06T20:25:12.393Z,15.32
2022-10-06T20:27:40.912Z,15.30
2022-10-06T20:30:10.776Z,15.29
2022-10-06T20:32:40.410Z,15.27
2022-10-06T20:35:09.594Z,15.24
2022-10-06T20:37:42.189Z,15.22
2022-10-06T20:40:28.909Z,15.19
2022-10-06T20:42:59.511Z,15.12
2022-10-06T20:45:27.968Z,15.05
2022-10-06T20:47:58.227Z,15.09
2022-10-06T20:50:27.196Z,15.10
2022-10-06T20:52:57.554Z,15.08
2022-10-06T20:55:26.410Z,15.08
2022-10-06T20:57:56.224Z,15.02
2022-10-06T21:00:25.709Z,14.93
2022-10-06T21:02:54.309Z,14.92
2022-10-06T21:05:24.463Z,14.93
2022-10-06T21:07:52.878Z,14.88
2022-10-06T21:10:21.372Z,14.84
2022-10-06T21:12:50.227Z,14.76
2022-10-06T21:15:18.718Z,14.70
2022-10-06T21:17:48.498Z,14.64
2022-10-06T21:20:17.668Z,14.65
2022-10-06T21:22:47.551Z,14.64
2022-10-06T21:25:16.293Z,14.61
2022-10-06T21:27:47.342Z,14.60
2022-10-06T21:30:16.149Z,14.58
2022-10-06T21:32:45.284Z,14.56
2022-10-06T21:35:13.831Z,14.51
2022-10-06T21:37:42.831Z,14.48
2022-10-06T21:40:14.055Z,14.44
2022-10-06T21:42:44.401Z,14.42
2022-10-06T21:45:13.168Z,14.41
2022-10-06T21:47:41.982Z,14.39
2022-10-06T21:50:10.988Z,14.35
2022-10-06T21:52:39.883Z,14.26
2022-10-06T21:55:08.757Z,14.25
2022-10-06T21:57:38.476Z,14.20
2022-10-06T22:00:11.227Z,14.13
2022-10-06T22:02:41.369Z,14.07
2022-10-06T22:05:10.582Z,14.08
2022-10-06T22:07:38.993Z,14.11
2022-10-06T22:10:08.138Z,14.11
2022-10-06T22:12:38.365Z,14.14
2022-10-06T22:15:07.832Z,14.12
2022-10-06T22:17:36.259Z,14.17
2022-10-06T22:20:05.593Z,14.18
2022-10-06T22:22:34.054Z,14.16
2022-10-06T22:25:02.398Z,14.18
2022-10-06T22:27:31.434Z,14.23
2022-10-06T22:30:01.252Z,14.25
2022-10-06T22:32:29.909Z,14.29
2022-10-06T22:34:58.863Z,14.30
2022-10-06T22:37:27.356Z,14.33
2022-10-06T22:39:56.015Z,14.36
2022-10-06T22:42:24.911Z,14.34
2022-10-06T22:44:53.319Z,14.29
2022-10-06T22:47:23.276Z,14.29
2022-10-06T22:49:52.008Z,14.28
2022-10-06T22:52:21.330Z,14.27
2022-10-06T22:54:49.750Z,14.29
2022-10-06T22:57:18.649Z,14.29
2022-10-06T22:59:47.097Z,14.30
2022-10-06T23:02:15.602Z,14.31
2022-10-06T23:04:45.641Z,14.32
2022-10-06T23:07:14.415Z,14.33
2022-10-06T23:09:42.928Z,14.34
2022-10-06T23:12:11.688Z,14.34
2022-10-06T23:14:40.176Z,14.37
2022-10-06T23:17:08.737Z,14.36
2022-10-06T23:19:37.571Z,14.36
2022-10-06T23:22:07.425Z,14.34
2022-10-06T23:24:35.764Z,14.33
2022-10-06T23:27:07.355Z,14.31
2022-10-06T23:29:35.764Z,14.29
2022-10-06T23:32:04.610Z,14.27
2022-10-06T23:34:33.070Z,14.24
2022-10-06T23:37:01.770Z,14.18
2022-10-06T23:39:31.897Z,14.08
2022-10-06T23:42:00.884Z,14.04
2022-10-06T23:44:29.723Z,14.04
2022-10-06T23:46:58.905Z,14.04
2022-10-06T23:49:27.327Z,14.01
2022-10-06T23:51:56.111Z,13.98
2022-10-06T23:54:24.503Z,13.93
2022-10-06T23:56:55.836Z,13.94
2022-10-06T23:59:26.413Z,13.90
